sensor_id;sensor_type;location;lat;lon;timestamp;pressure;altitude;pressure_sealevel;temperature;humidity
57232;BME280;43488;46.934;8.276;2022-11-18T00:01:21;94806.75;;;10.14;100.00
57232;BME280;43488;46.934;8.276;2022-11-18T00:03:52;94824.84;;;10.11;100.00
57232;BME280;43488;46.934;8.276;2022-11-18T00:06:24;94816.88;;;10.06;100.00
57232;BME280;43488;46.934;8.276;2022-11-18T00:08:53;94811.41;;;10.07;100.00
57232;BME280;43488;46.934;8.276;2022-11-18T00:11:24;94809.06;;;10.11;100.00
57232;BME280;43488;46.934;8.276;2022-11-18T00:14:14;94824.78;;;10.06;100.00
57232;BME280;43488;46.934;8.276;2022-11-18T00:16:56;94842.97;;;10.07;100.00
57232;BME280;43488;46.934;8.276;2022-11-18T00:19:26;94833.00;;;10.09;100.00
57232;BME280;43488;46.934;8.276;2022-11-18T00:21:55;94832.19;;;10.09;100.00
57232;BME280;43488;46.934;8.276;2022-11-18T00:24:23;94833.25;;;10.08;100.00
57232;BME280;43488;46.934;8.276;2022-11-18T00:26:51;94839.53;;;10.07;100.00
57232;BME280;43488;46.934;8.276;2022-11-18T00:29:19;94845.00;;;10.05;100.00
57232;BME280;43488;46.934;8.276;2022-11-18T00:31:49;94843.44;;;10.04;100.00
57232;BME280;43488;46.934;8.276;2022-11-18T00:34:18;94838.66;;;10.01;100.00
57232;BME280;43488;46.934;8.276;2022-11-18T00:36:47;94833.34;;;9.96;100.00
57232;BME280;43488;46.934;8.276;2022-11-18T00:39:17;94841.78;;;9.98;100.00
57232;BME280;43488;46.934;8.276;2022-11-18T00:41:45;94851.28;;;9.99;100.00
57232;BME280;43488;46.934;8.276;2022-11-18T00:44:31;94873.34;;;9.98;100.00
57232;BME280;43488;46.934;8.276;2022-11-18T00:46:58;94885.91;;;9.96;100.00
57232;BME280;43488;46.934;8.276;2022-11-18T00:49:26;94892.28;;;10.00;100.00
57232;BME280;43488;46.934;8.276;2022-11-18T00:51:53;94911.72;;;9.99;100.00
57232;BME280;43488;46.934;8.276;2022-11-18T00:54:21;94910.06;;;9.93;100.00
57232;BME280;43488;46.934;8.276;2022-11-18T00:56:48;94920.81;;;9.91;100.00
57232;BME280;43488;46.934;8.276;2022-11-18T00:59:15;94922.16;;;9.94;100.00
57232;BME280;43488;46.934;8.276;2022-11-18T01:01:43;94927.81;;;9.86;100.00
57232;BME280;43488;46.934;8.276;2022-11-18T01:04:10;94926.78;;;9.87;100.00
57232;BME280;43488;46.934;8.276;2022-11-18T01:06:38;94930.47;;;9.69;100.00
57232;BME280;43488;46.934;8.276;2022-11-18T01:09:06;94949.44;;;9.71;100.00
57232;BME280;43488;46.934;8.276;2022-11-18T01:11:34;94949.75;;;9.75;96.47
57232;BME280;43488;46.934;8.276;2022-11-18T01:14:22;94966.38;;;9.63;86.47
57232;BME280;43488;46.934;8.276;2022-11-18T01:16:54;94963.75;;;9.63;86.95
57232;BME280;43488;46.934;8.276;2022-11-18T01:19:21;94965.84;;;9.61;87.82
57232;BME280;43488;46.934;8.276;2022-11-18T01:21:50;94958.25;;;9.48;92.09
57232;BME280;43488;46.934;8.276;2022-11-18T01:24:18;94960.72;;;9.38;90.13
57232;BME280;43488;46.934;8.276;2022-11-18T01:26:46;94968.59;;;9.38;91.29
57232;BME280;43488;46.934;8.276;2022-11-18T01:29:13;94970.28;;;9.44;91.20
57232;BME280;43488;46.934;8.276;2022-11-18T01:31:40;94977.91;;;9.46;91.23
57232;BME280;43488;46.934;8.276;2022-11-18T01:34:08;94980.38;;;9.35;95.90
57232;BME280;43488;46.934;8.276;2022-11-18T01:36:35;94985.88;;;9.34;95.34
57232;BME280;43488;46.934;8.276;2022-11-18T01:39:02;94987.75;;;9.38;95.78
57232;BME280;43488;46.934;8.276;2022-11-18T01:41:30;95002.56;;;9.28;91.82
57232;BME280;43488;46.934;8.276;2022-11-18T01:44:52;95010.13;;;9.24;91.41
57232;BME280;43488;46.934;8.276;2022-11-18T01:46:53;95016.84;;;9.20;91.67
57232;BME280;43488;46.934;8.276;2022-11-18T01:49:21;95003.66;;;9.15;92.58
57232;BME280;43488;46.934;8.276;2022-11-18T01:51:54;94991.31;;;9.16;94.45
57232;BME280;43488;46.934;8.276;2022-11-18T01:54:31;94999.19;;;9.16;95.76
57232;BME280;43488;46.934;8.276;2022-11-18T01:57:06;95012.31;;;9.16;96.76
57232;BME280;43488;46.934;8.276;2022-11-18T01:59:39;95009.91;;;9.14;96.38
57232;BME280;43488;46.934;8.276;2022-11-18T02:02:11;95015.16;;;9.14;95.36
57232;BME280;43488;46.934;8.276;2022-11-18T02:04:44;95012.06;;;9.17;93.99
57232;BME280;43488;46.934;8.276;2022-11-18T02:07:14;95009.59;;;9.10;95.90
57232;BME280;43488;46.934;8.276;2022-11-18T02:09:42;95001.47;;;9.12;96.27
57232;BME280;43488;46.934;8.276;2022-11-18T02:12:11;94994.50;;;9.18;94.72
57232;BME280;43488;46.934;8.276;2022-11-18T02:14:42;95007.75;;;9.11;97.80
57232;BME280;43488;46.934;8.276;2022-11-18T02:17:44;95000.34;;;9.08;99.02
57232;BME280;43488;46.934;8.276;2022-11-18T02:20:28;95009.34;;;9.12;98.93
57232;BME280;43488;46.934;8.276;2022-11-18T02:23:21;95004.66;;;9.14;99.40
57232;BME280;43488;46.934;8.276;2022-11-18T02:29:43;95009.72;;;9.04;100.00
57232;BME280;43488;46.934;8.276;2022-11-18T02:32:25;95003.59;;;8.98;100.00
57232;BME280;43488;46.934;8.276;2022-11-18T02:37:57;95006.56;;;8.90;100.00
57232;BME280;43488;46.934;8.276;2022-11-18T02:40:38;94997.34;;;8.88;100.00
57232;BME280;43488;46.934;8.276;2022-11-18T02:43:17;94996.44;;;8.82;100.00
57232;BME280;43488;46.934;8.276;2022-11-18T02:45:51;95002.59;;;8.76;100.00
57232;BME280;43488;46.934;8.276;2022-11-18T02:48:23;95005.22;;;8.76;100.00
57232;BME280;43488;46.934;8.276;2022-11-18T02:50:54;95015.03;;;8.80;100.00
57232;BME280;43488;46.934;8.276;2022-11-18T02:53:25;95006.13;;;8.81;100.00
57232;BME280;43488;46.934;8.276;2022-11-18T02:55:54;95020.06;;;8.82;100.00
57232;BME280;43488;46.934;8.276;2022-11-18T02:58:24;95017.31;;;8.77;100.00
57232;BME280;43488;46.934;8.276;2022-11-18T03:00:58;95021.88;;;8.81;100.00
57232;BME280;43488;46.934;8.276;2022-11-18T03:03:32;95018.94;;;8.78;97.20
57232;BME280;43488;46.934;8.276;2022-11-18T03:09:33;95022.44;;;8.83;98.38
57232;BME280;43488;46.934;8.276;2022-11-18T03:12:31;95032.69;;;8.85;98.81
57232;BME280;43488;46.934;8.276;2022-11-18T03:15:55;95029.63;;;8.88;96.96
57232;BME280;43488;46.934;8.276;2022-11-18T03:21:36;95047.28;;;8.93;95.83
57232;BME280;43488;46.934;8.276;2022-11-18T03:24:21;95058.34;;;8.95;97.90
57232;BME280;43488;46.934;8.276;2022-11-18T03:27:02;95054.16;;;8.82;100.00
57232;BME280;43488;46.934;8.276;2022-11-18T03:29:38;95058.28;;;8.78;100.00
57232;BME280;43488;46.934;8.276;2022-11-18T03:32:17;95057.59;;;8.82;100.00
57232;BME280;43488;46.934;8.276;2022-11-18T03:34:49;95058.16;;;8.84;100.00
57232;BME280;43488;46.934;8.276;2022-11-18T03:37:20;95049.94;;;8.81;100.00
57232;BME280;43488;46.934;8.276;2022-11-18T03:39:53;95049.47;;;8.84;99.12
57232;BME280;43488;46.934;8.276;2022-11-18T03:42:31;95054.06;;;8.77;99.91
57232;BME280;43488;46.934;8.276;2022-11-18T03:45:16;95063.97;;;8.87;99.92
57232;BME280;43488;46.934;8.276;2022-11-18T03:48:02;95057.91;;;8.86;99.71
57232;BME280;43488;46.934;8.276;2022-11-18T03:50:36;95071.38;;;8.90;99.88
57232;BME280;43488;46.934;8.276;2022-11-18T03:53:06;95073.34;;;8.82;100.00
57232;BME280;43488;46.934;8.276;2022-11-18T03:55:40;95071.19;;;8.79;100.00
57232;BME280;43488;46.934;8.276;2022-11-18T03:58:29;95077.78;;;8.82;99.88
57232;BME280;43488;46.934;8.276;2022-11-18T04:01:14;95068.78;;;8.78;100.00
57232;BME280;43488;46.934;8.276;2022-11-18T04:03:43;95070.16;;;8.69;100.00
57232;BME280;43488;46.934;8.276;2022-11-18T04:06:45;95071.66;;;8.65;100.00
57232;BME280;43488;46.934;8.276;2022-11-18T04:09:23;95071.97;;;8.68;100.00
57232;BME280;43488;46.934;8.276;2022-11-18T04:12:02;95074.16;;;8.71;100.00
57232;BME280;43488;46.934;8.276;2022-11-18T04:14:35;95081.22;;;8.71;100.00
57232;BME280;43488;46.934;8.276;2022-11-18T04:17:13;95080.53;;;8.75;100.00
57232;BME280;43488;46.934;8.276;2022-11-18T04:19:41;95082.25;;;8.70;100.00
57232;BME280;43488;46.934;8.276;2022-11-18T04:22:10;95091.25;;;8.74;100.00
57232;BME280;43488;46.934;8.276;2022-11-18T04:24:38;95088.88;;;8.72;100.00
57232;BME280;43488;46.934;8.276;2022-11-18T04:27:06;95088.97;;;8.66;100.00
57232;BME280;43488;46.934;8.276;2022-11-18T04:29:34;95099.13;;;8.62;100.00
57232;BME280;43488;46.934;8.276;2022-11-18T04:32:03;95102.00;;;8.61;100.00
57232;BME280;43488;46.934;8.276;2022-11-18T04:34:31;95097.88;;;8.53;100.00
57232;BME280;43488;46.934;8.276;2022-11-18T04:36:58;95095.50;;;8.51;100.00
57232;BME280;43488;46.934;8.276;2022-11-18T04:39:28;95109.19;;;8.53;100.00
57232;BME280;43488;46.934;8.276;2022-11-18T04:41:55;95102.78;;;8.49;100.00
57232;BME280;43488;46.934;8.276;2022-11-18T04:44:29;95101.78;;;8.50;100.00
57232;BME280;43488;46.934;8.276;2022-11-18T04:47:00;95116.59;;;8.45;100.00
57232;BME280;43488;46.934;8.276;2022-11-18T04:49:28;95110.66;;;8.49;100.00
57232;BME280;43488;46.934;8.276;2022-11-18T04:51:57;95113.16;;;8.56;100.00
57232;BME280;43488;46.934;8.276;2022-11-18T04:54:26;95108.16;;;8.54;100.00
57232;BME280;43488;46.934;8.276;2022-11-18T04:56:54;95106.66;;;8.59;100.00
57232;BME280;43488;46.934;8.276;2022-11-18T04:59:25;95104.38;;;8.62;100.00
57232;BME280;43488;46.934;8.276;2022-11-18T05:01:54;95102.19;;;8.59;99.62
57232;BME280;43488;46.934;8.276;2022-11-18T05:04:25;95115.91;;;8.61;99.67
57232;BME280;43488;46.934;8.276;2022-11-18T05:06:53;95120.91;;;8.63;96.26
57232;BME280;43488;46.934;8.276;2022-11-18T05:09:24;95126.25;;;8.68;91.81
57232;BME280;43488;46.934;8.276;2022-11-18T05:12:00;95133.00;;;8.75;88.14
57232;BME280;43488;46.934;8.276;2022-11-18T05:14:45;95131.28;;;8.81;87.99
57232;BME280;43488;46.934;8.276;2022-11-18T05:17:13;95144.19;;;8.82;89.42
57232;BME280;43488;46.934;8.276;2022-11-18T05:19:41;95146.00;;;8.82;90.53
57232;BME280;43488;46.934;8.276;2022-11-18T05:22:09;95149.66;;;8.81;91.40
57232;BME280;43488;46.934;8.276;2022-11-18T05:24:36;95157.19;;;8.77;92.40
57232;BME280;43488;46.934;8.276;2022-11-18T05:27:03;95164.25;;;8.77;92.42
57232;BME280;43488;46.934;8.276;2022-11-18T05:29:31;95166.78;;;8.72;91.92
57232;BME280;43488;46.934;8.276;2022-11-18T05:31:59;95160.03;;;8.76;91.67
57232;BME280;43488;46.934;8.276;2022-11-18T05:34:26;95169.28;;;8.67;91.83
57232;BME280;43488;46.934;8.276;2022-11-18T05:36:54;95173.38;;;8.63;91.38
57232;BME280;43488;46.934;8.276;2022-11-18T05:39:21;95175.66;;;8.59;91.01
57232;BME280;43488;46.934;8.276;2022-11-18T05:41:48;95185.72;;;8.62;91.99
57232;BME280;43488;46.934;8.276;2022-11-18T05:44:34;95193.44;;;8.57;91.36
57232;BME280;43488;46.934;8.276;2022-11-18T05:47:02;95207.03;;;8.54;92.99
57232;BME280;43488;46.934;8.276;2022-11-18T05:49:29;95214.56;;;8.50;100.00
57232;BME280;43488;46.934;8.276;2022-11-18T05:51:57;95220.13;;;8.42;94.78
57232;BME280;43488;46.934;8.276;2022-11-18T05:54:24;95217.78;;;8.34;95.86
57232;BME280;43488;46.934;8.276;2022-11-18T05:56:52;95215.47;;;8.26;95.83
57232;BME280;43488;46.934;8.276;2022-11-18T05:59:20;95229.63;;;8.25;96.48
57232;BME280;43488;46.934;8.276;2022-11-18T06:02:15;95226.06;;;8.19;97.04
57232;BME280;43488;46.934;8.276;2022-11-18T06:04:49;95226.28;;;8.18;95.61
57232;BME280;43488;46.934;8.276;2022-11-18T06:07:29;95234.94;;;8.18;94.67
57232;BME280;43488;46.934;8.276;2022-11-18T06:09:59;95237.34;;;8.20;95.10
57232;BME280;43488;46.934;8.276;2022-11-18T06:12:31;95234.06;;;8.24;94.73
57232;BME280;43488;46.934;8.276;2022-11-18T06:15:21;95242.03;;;8.30;94.38
57232;BME280;43488;46.934;8.276;2022-11-18T06:18:02;95241.63;;;8.33;94.34
57232;BME280;43488;46.934;8.276;2022-11-18T06:20:34;95249.56;;;8.26;97.00
57232;BME280;43488;46.934;8.276;2022-11-18T06:23:02;95249.56;;;8.26;97.85
57232;BME280;43488;46.934;8.276;2022-11-18T06:25:29;95246.94;;;8.26;98.24
57232;BME280;43488;46.934;8.276;2022-11-18T06:27:59;95254.13;;;8.31;99.92
57232;BME280;43488;46.934;8.276;2022-11-18T06:30:27;95249.91;;;8.30;100.00
57232;BME280;43488;46.934;8.276;2022-11-18T06:32:55;95259.03;;;8.27;100.00
57232;BME280;43488;46.934;8.276;2022-11-18T06:35:22;95258.88;;;8.22;100.00
57232;BME280;43488;46.934;8.276;2022-11-18T06:37:50;95262.69;;;8.26;100.00
57232;BME280;43488;46.934;8.276;2022-11-18T06:40:18;95267.13;;;8.25;100.00
57232;BME280;43488;46.934;8.276;2022-11-18T06:42:46;95267.47;;;8.29;100.00
57232;BME280;43488;46.934;8.276;2022-11-18T06:45:32;95288.03;;;8.32;100.00
57232;BME280;43488;46.934;8.276;2022-11-18T06:48:00;95280.94;;;8.33;100.00
57232;BME280;43488;46.934;8.276;2022-11-18T06:50:28;95275.56;;;8.27;99.36
57232;BME280;43488;46.934;8.276;2022-11-18T06:52:58;95278.97;;;8.28;99.29
57232;BME280;43488;46.934;8.276;2022-11-18T06:55:26;95290.94;;;8.24;99.37
57232;BME280;43488;46.934;8.276;2022-11-18T06:57:55;95289.34;;;8.23;100.00
57232;BME280;43488;46.934;8.276;2022-11-18T07:00:23;95298.44;;;8.20;100.00
57232;BME280;43488;46.934;8.276;2022-11-18T07:02:50;95296.63;;;8.21;100.00
57232;BME280;43488;46.934;8.276;2022-11-18T07:05:17;95295.81;;;8.20;100.00
57232;BME280;43488;46.934;8.276;2022-11-18T07:07:44;95297.28;;;8.16;100.00
57232;BME280;43488;46.934;8.276;2022-11-18T07:10:11;95294.44;;;8.18;100.00
57232;BME280;43488;46.934;8.276;2022-11-18T07:12:39;95296.19;;;8.24;100.00
57232;BME280;43488;46.934;8.276;2022-11-18T07:15:07;95309.72;;;8.21;100.00
57232;BME280;43488;46.934;8.276;2022-11-18T07:17:34;95310.16;;;8.18;100.00
57232;BME280;43488;46.934;8.276;2022-11-18T07:20:06;95326.53;;;8.13;100.00
57232;BME280;43488;46.934;8.276;2022-11-18T07:22:33;95324.59;;;8.09;100.00
57232;BME280;43488;46.934;8.276;2022-11-18T07:25:01;95324.38;;;8.10;100.00
57232;BME280;43488;46.934;8.276;2022-11-18T07:27:28;95328.97;;;8.15;100.00
57232;BME280;43488;46.934;8.276;2022-11-18T07:29:55;95338.66;;;8.14;100.00
57232;BME280;43488;46.934;8.276;2022-11-18T07:32:22;95335.00;;;8.15;100.00
57232;BME280;43488;46.934;8.276;2022-11-18T07:34:49;95346.88;;;8.18;100.00
57232;BME280;43488;46.934;8.276;2022-11-18T07:37:17;95345.06;;;8.18;100.00
57232;BME280;43488;46.934;8.276;2022-11-18T07:39:44;95347.22;;;8.21;100.00
57232;BME280;43488;46.934;8.276;2022-11-18T07:42:12;95351.81;;;8.26;100.00
57232;BME280;43488;46.934;8.276;2022-11-18T07:44:39;95362.25;;;8.33;100.00
57232;BME280;43488;46.934;8.276;2022-11-18T07:47:07;95360.56;;;8.38;100.00
57232;BME280;43488;46.934;8.276;2022-11-18T07:49:34;95355.31;;;8.38;100.00
57232;BME280;43488;46.934;8.276;2022-11-18T07:52:07;95354.69;;;8.43;100.00
57232;BME280;43488;46.934;8.276;2022-11-18T07:54:35;95353.41;;;8.45;100.00
57232;BME280;43488;46.934;8.276;2022-11-18T07:57:02;95351.13;;;8.49;100.00
57232;BME280;43488;46.934;8.276;2022-11-18T07:59:29;95352.75;;;8.50;100.00
57232;BME280;43488;46.934;8.276;2022-11-18T08:01:58;95357.78;;;8.51;100.00
57232;BME280;43488;46.934;8.276;2022-11-18T08:04:25;95356.75;;;8.52;100.00
57232;BME280;43488;46.934;8.276;2022-11-18T08:06:53;95350.25;;;8.55;100.00
57232;BME280;43488;46.934;8.276;2022-11-18T08:09:21;95358.13;;;8.55;100.00
57232;BME280;43488;46.934;8.276;2022-11-18T08:11:51;95361.78;;;8.54;100.00
57232;BME280;43488;46.934;8.276;2022-11-18T08:14:19;95364.97;;;8.56;100.00
57232;BME280;43488;46.934;8.276;2022-11-18T08:16:47;95368.41;;;8.57;100.00
57232;BME280;43488;46.934;8.276;2022-11-18T08:19:15;95372.78;;;8.63;100.00
57232;BME280;43488;46.934;8.276;2022-11-18T08:21:43;95381.56;;;8.68;100.00
57232;BME280;43488;46.934;8.276;2022-11-18T08:24:10;95380.56;;;8.69;100.00
57232;BME280;43488;46.934;8.276;2022-11-18T08:26:38;95392.72;;;8.64;100.00
57232;BME280;43488;46.934;8.276;2022-11-18T08:29:07;95394.78;;;8.62;100.00
57232;BME280;43488;46.934;8.276;2022-11-18T08:31:35;95379.69;;;8.57;100.00
57232;BME280;43488;46.934;8.276;2022-11-18T08:34:05;95390.75;;;8.59;100.00
57232;BME280;43488;46.934;8.276;2022-11-18T08:36:35;95393.53;;;8.64;100.00
57232;BME280;43488;46.934;8.276;2022-11-18T08:39:07;95394.47;;;8.70;100.00
57232;BME280;43488;46.934;8.276;2022-11-18T08:41:41;95399.28;;;8.73;100.00
57232;BME280;43488;46.934;8.276;2022-11-18T08:44:14;95397.78;;;8.77;100.00
57232;BME280;43488;46.934;8.276;2022-11-18T08:46:44;95412.75;;;8.76;100.00
57232;BME280;43488;46.934;8.276;2022-11-18T08:49:12;95416.09;;;8.83;100.00
57232;BME280;43488;46.934;8.276;2022-11-18T08:51:39;95410.97;;;8.89;100.00
57232;BME280;43488;46.934;8.276;2022-11-18T08:54:06;95409.94;;;8.90;100.00
57232;BME280;43488;46.934;8.276;2022-11-18T08:56:34;95411.25;;;8.99;100.00
57232;BME280;43488;46.934;8.276;2022-11-18T08:59:01;95407.59;;;9.11;100.00
57232;BME280;43488;46.934;8.276;2022-11-18T09:01:29;95399.19;;;9.21;100.00
57232;BME280;43488;46.934;8.276;2022-11-18T09:03:57;95407.19;;;9.26;99.98
57232;BME280;43488;46.934;8.276;2022-11-18T09:06:25;95405.63;;;9.37;99.68
57232;BME280;43488;46.934;8.276;2022-11-18T09:08:53;95409.59;;;9.39;99.71
57232;BME280;43488;46.934;8.276;2022-11-18T09:11:24;95407.56;;;9.41;98.46
57232;BME280;43488;46.934;8.276;2022-11-18T09:13:56;95406.56;;;9.43;98.75
57232;BME280;43488;46.934;8.276;2022-11-18T09:16:26;95411.91;;;9.48;99.32
57232;BME280;43488;46.934;8.276;2022-11-18T09:18:55;95412.72;;;9.48;99.57
57232;BME280;43488;46.934;8.276;2022-11-18T09:21:23;95424.47;;;9.46;99.36
57232;BME280;43488;46.934;8.276;2022-11-18T09:23:51;95419.69;;;9.43;100.00
57232;BME280;43488;46.934;8.276;2022-11-18T09:26:21;95425.13;;;9.41;100.00
57232;BME280;43488;46.934;8.276;2022-11-18T09:28:52;95422.06;;;9.44;100.00
57232;BME280;43488;46.934;8.276;2022-11-18T09:31:20;95425.75;;;9.43;99.32
57232;BME280;43488;46.934;8.276;2022-11-18T09:33:47;95420.91;;;9.40;98.09
57232;BME280;43488;46.934;8.276;2022-11-18T09:36:19;95427.75;;;9.41;99.03
57232;BME280;43488;46.934;8.276;2022-11-18T09:38:47;95420.91;;;9.40;97.84
57232;BME280;43488;46.934;8.276;2022-11-18T09:41:35;95425.97;;;9.53;97.97
57232;BME280;43488;46.934;8.276;2022-11-18T09:44:27;95428.50;;;9.72;97.58
57232;BME280;43488;46.934;8.276;2022-11-18T09:47:28;95433.19;;;9.81;96.25
57232;BME280;43488;46.934;8.276;2022-11-18T09:50:09;95435.34;;;9.84;95.17
57232;BME280;43488;46.934;8.276;2022-11-18T09:55:29;95439.00;;;9.95;92.50
57232;BME280;43488;46.934;8.276;2022-11-18T09:57:58;95438.78;;;9.85;93.79
57232;BME280;43488;46.934;8.276;2022-11-18T10:00:28;95436.72;;;9.87;95.02
57232;BME280;43488;46.934;8.276;2022-11-18T10:03:07;95445.63;;;9.86;96.78
57232;BME280;43488;46.934;8.276;2022-11-18T10:05:59;95442.44;;;9.84;96.75
57232;BME280;43488;46.934;8.276;2022-11-18T10:09:01;95446.34;;;9.69;95.79
57232;BME280;43488;46.934;8.276;2022-11-18T10:15:41;95448.97;;;9.69;94.82
57232;BME280;43488;46.934;8.276;2022-11-18T10:17:54;95439.13;;;9.77;95.27
57232;BME280;43488;46.934;8.276;2022-11-18T10:24:17;95438.09;;;9.78;92.97
57232;BME280;43488;46.934;8.276;2022-11-18T10:26:11;95446.22;;;9.76;93.45
57232;BME280;43488;46.934;8.276;2022-11-18T10:28:39;95450.66;;;9.76;91.83
57232;BME280;43488;46.934;8.276;2022-11-18T10:31:09;95452.72;;;9.74;92.95
57232;BME280;43488;46.934;8.276;2022-11-18T10:33:38;95458.44;;;9.71;93.64
57232;BME280;43488;46.934;8.276;2022-11-18T10:36:31;95461.06;;;9.71;94.47
57232;BME280;43488;46.934;8.276;2022-11-18T10:39:14;95465.72;;;9.68;94.40
57232;BME280;43488;46.934;8.276;2022-11-18T10:41:48;95470.66;;;9.77;95.98
57232;BME280;43488;46.934;8.276;2022-11-18T10:47:03;95464.03;;;9.86;98.84
57232;BME280;43488;46.934;8.276;2022-11-18T10:49:40;95462.00;;;10.00;98.39
57232;BME280;43488;46.934;8.276;2022-11-18T10:52:14;95466.69;;;10.09;98.37
57232;BME280;43488;46.934;8.276;2022-11-18T10:54:41;95460.63;;;10.09;98.06
57232;BME280;43488;46.934;8.276;2022-11-18T10:57:23;95454.13;;;10.00;96.67
57232;BME280;43488;46.934;8.276;2022-11-18T10:59:55;95453.31;;;9.99;96.96
57232;BME280;43488;46.934;8.276;2022-11-18T11:02:34;95452.63;;;10.04;96.36
57232;BME280;43488;46.934;8.276;2022-11-18T11:05:35;95447.81;;;10.12;95.69
57232;BME280;43488;46.934;8.276;2022-11-18T11:08:16;95457.66;;;10.05;96.27
57232;BME280;43488;46.934;8.276;2022-11-18T11:10:57;95460.84;;;9.95;93.41
57232;BME280;43488;46.934;8.276;2022-11-18T11:13:29;95462.44;;;9.96;93.37
57232;BME280;43488;46.934;8.276;2022-11-18T11:16:02;95474.78;;;9.96;94.51
57232;BME280;43488;46.934;8.276;2022-11-18T11:18:34;95476.06;;;9.93;97.09
57232;BME280;43488;46.934;8.276;2022-11-18T11:21:21;95473.88;;;9.90;97.91
57232;BME280;43488;46.934;8.276;2022-11-18T11:23:51;95472.97;;;9.85;97.92
57232;BME280;43488;46.934;8.276;2022-11-18T11:26:50;95474.47;;;9.81;99.44
57232;BME280;43488;46.934;8.276;2022-11-18T11:32:26;95463.56;;;9.77;99.74
57232;BME280;43488;46.934;8.276;2022-11-18T11:35:15;95463.47;;;9.84;99.52
57232;BME280;43488;46.934;8.276;2022-11-18T11:37:59;95463.59;;;9.89;99.69
57232;BME280;43488;46.934;8.276;2022-11-18T11:43:39;95475.50;;;9.91;96.45
57232;BME280;43488;46.934;8.276;2022-11-18T11:50:01;95489.19;;;9.93;96.70
57232;BME280;43488;46.934;8.276;2022-11-18T11:53:19;95480.19;;;10.01;98.00
57232;BME280;43488;46.934;8.276;2022-11-18T11:56:27;95489.09;;;10.00;94.61
57232;BME280;43488;46.934;8.276;2022-11-18T11:59:13;95484.31;;;9.97;94.30
57232;BME280;43488;46.934;8.276;2022-11-18T12:08:08;95490.69;;;10.01;99.46
57232;BME280;43488;46.934;8.276;2022-11-18T12:10:52;95493.66;;;10.05;97.88
57232;BME280;43488;46.934;8.276;2022-11-18T12:19:09;95495.53;;;10.28;96.68
57232;BME280;43488;46.934;8.276;2022-11-18T12:26:50;95500.06;;;10.79;94.43
57232;BME280;43488;46.934;8.276;2022-11-18T12:31:57;95506.84;;;11.77;89.02
57232;BME280;43488;46.934;8.276;2022-11-18T12:34:39;95505.69;;;15.56;70.21
57232;BME280;43488;46.934;8.276;2022-11-18T12:40:04;95496.47;;;15.94;64.36
57232;BME280;43488;46.934;8.276;2022-11-18T12:42:45;95501.78;;;14.96;66.70
57232;BME280;43488;46.934;8.276;2022-11-18T12:48:28;95492.19;;;14.90;67.81
57232;BME280;43488;46.934;8.276;2022-11-18T12:53:53;95502.56;;;13.75;72.68
57232;BME280;43488;46.934;8.276;2022-11-18T12:56:31;95503.25;;;13.38;74.67
57232;BME280;43488;46.934;8.276;2022-11-18T12:59:01;95501.00;;;12.81;75.99
57232;BME280;43488;46.934;8.276;2022-11-18T13:01:31;95517.25;;;12.34;79.07
57232;BME280;43488;46.934;8.276;2022-11-18T13:04:08;95509.50;;;12.44;78.73
57232;BME280;43488;46.934;8.276;2022-11-18T13:06:37;95520.22;;;12.21;78.91
57232;BME280;43488;46.934;8.276;2022-11-18T13:09:17;95525.19;;;12.01;80.55
57232;BME280;43488;46.934;8.276;2022-11-18T13:11:50;95529.91;;;11.53;84.54
57232;BME280;43488;46.934;8.276;2022-11-18T13:14:33;95534.69;;;11.56;83.83
57232;BME280;43488;46.934;8.276;2022-11-18T13:17:35;95530.19;;;11.40;86.19
57232;BME280;43488;46.934;8.276;2022-11-18T13:23:01;95524.78;;;12.09;83.89
57232;BME280;43488;46.934;8.276;2022-11-18T13:25:48;95527.06;;;13.97;74.79
57232;BME280;43488;46.934;8.276;2022-11-18T13:33:44;95509.84;;;19.14;52.36
57232;BME280;43488;46.934;8.276;2022-11-18T13:39:00;95513.19;;;20.19;45.51
57232;BME280;43488;46.934;8.276;2022-11-18T13:41:31;95515.94;;;21.98;40.97
57232;BME280;43488;46.934;8.276;2022-11-18T13:46:51;95514.16;;;26.05;32.33
57232;BME280;43488;46.934;8.276;2022-11-18T13:49:27;95520.28;;;26.14;31.61
57232;BME280;43488;46.934;8.276;2022-11-18T13:51:57;95516.34;;;26.12;31.11
57232;BME280;43488;46.934;8.276;2022-11-18T13:54:26;95518.63;;;26.76;29.78
57232;BME280;43488;46.934;8.276;2022-11-18T13:56:53;95515.03;;;26.72;29.85
57232;BME280;43488;46.934;8.276;2022-11-18T13:59:22;95517.06;;;26.21;30.17
57232;BME280;43488;46.934;8.276;2022-11-18T14:01:58;95509.25;;;23.90;33.35
57232;BME280;43488;46.934;8.276;2022-11-18T14:04:30;95513.22;;;22.11;35.79
57232;BME280;43488;46.934;8.276;2022-11-18T14:10:06;95512.91;;;19.69;41.20
57232;BME280;43488;46.934;8.276;2022-11-18T14:12:35;95514.84;;;18.97;43.83
57232;BME280;43488;46.934;8.276;2022-11-18T14:15:32;95516.59;;;18.54;45.20
57232;BME280;43488;46.934;8.276;2022-11-18T14:18:01;95516.78;;;18.91;45.12
57232;BME280;43488;46.934;8.276;2022-11-18T14:20:30;95514.00;;;18.78;47.10
57232;BME280;43488;46.934;8.276;2022-11-18T14:23:02;95508.50;;;19.36;43.67
57232;BME280;43488;46.934;8.276;2022-11-18T14:25:34;95512.25;;;18.34;46.79
57232;BME280;43488;46.934;8.276;2022-11-18T14:28:29;95501.72;;;17.35;48.20
57232;BME280;43488;46.934;8.276;2022-11-18T14:33:38;95509.47;;;16.06;52.82
57232;BME280;43488;46.934;8.276;2022-11-18T14:36:10;95507.25;;;15.47;55.41
57232;BME280;43488;46.934;8.276;2022-11-18T14:38:50;95508.69;;;15.07;57.04
57232;BME280;43488;46.934;8.276;2022-11-18T14:41:20;95513.88;;;14.76;58.96
57232;BME280;43488;46.934;8.276;2022-11-18T14:44:07;95523.38;;;14.30;60.93
57232;BME280;43488;46.934;8.276;2022-11-18T14:46:36;95519.13;;;13.97;64.51
57232;BME280;43488;46.934;8.276;2022-11-18T14:49:15;95524.66;;;13.63;65.53
57232;BME280;43488;46.934;8.276;2022-11-18T14:51:44;95531.75;;;13.58;65.52
57232;BME280;43488;46.934;8.276;2022-11-18T14:54:18;95535.22;;;13.36;65.11
57232;BME280;43488;46.934;8.276;2022-11-18T14:56:47;95532.47;;;13.26;64.25
57232;BME280;43488;46.934;8.276;2022-11-18T14:59:18;95538.03;;;12.86;69.80
57232;BME280;43488;46.934;8.276;2022-11-18T15:01:46;95532.78;;;12.69;72.15